createdAt,value
2022-12-15T00:05:23.519Z,31.08
2022-12-15T00:08:18.124Z,34.40
2022-12-15T00:11:05.450Z,33.75
2022-12-15T00:13:59.595Z,35.65
2022-12-15T00:16:47.147Z,36.95
2022-12-15T00:19:42.114Z,38.05
2022-12-15T00:22:29.266Z,36.00
2022-12-15T00:25:16.286Z,38.40
2022-12-15T00:28:12.457Z,39.20
2022-12-15T00:31:02.580Z,35.05
2022-12-15T00:33:52.400Z,36.15
2022-12-15T00:36:46.626Z,35.67
2022-12-15T00:39:22.774Z,32.55
2022-12-15T00:41:52.772Z,37.58
2022-12-15T00:44:26.233Z,38.78
2022-12-15T00:47:05.345Z,37.95
2022-12-15T00:50:02.471Z,33.63
2022-12-15T00:52:49.949Z,35.63
2022-12-15T00:55:36.833Z,35.28
2022-12-15T00:58:31.203Z,35.63
2022-12-15T01:01:32.060Z,30.33
2022-12-15T01:04:26.516Z,38.72
2022-12-15T01:07:13.998Z,35.17
2022-12-15T01:10:02.110Z,37.22
2022-12-15T01:12:50.374Z,35.70
2022-12-15T01:15:43.580Z,35.65
2022-12-15T01:18:30.480Z,32.42
2022-12-15T01:21:09.993Z,35.45
2022-12-15T01:23:42.759Z,36.25
2022-12-15T01:31:44.409Z,34.05
2022-12-15T01:34:17.771Z,35.75
2022-12-15T01:36:47.967Z,31.33
2022-12-15T01:39:16.119Z,34.88
2022-12-15T01:41:47.080Z,31.02
2022-12-15T01:47:02.387Z,32.00
2022-12-15T01:49:35.929Z,35.90
2022-12-15T01:52:08.920Z,31.17
2022-12-15T01:54:57.903Z,30.77
2022-12-15T01:57:36.719Z,26.05
2022-12-15T02:00:16.758Z,28.88
2022-12-15T02:02:52.131Z,31.75
2022-12-15T02:05:23.380Z,29.05
2022-12-15T02:07:56.815Z,30.45
2022-12-15T02:10:31.464Z,30.98
2022-12-15T02:13:58.996Z,31.38
2022-12-15T02:16:51.650Z,25.33
2022-12-15T02:19:56.294Z,27.40
2022-12-15T02:22:50.042Z,31.13
2022-12-15T02:26:01.443Z,29.10
2022-12-15T02:34:45.922Z,29.77
2022-12-15T02:37:43.342Z,29.00
2022-12-15T02:40:12.443Z,30.08
2022-12-15T02:42:48.324Z,28.77
2022-12-15T02:45:33.377Z,28.08
2022-12-15T02:48:37.717Z,26.92
2022-12-15T02:51:40.110Z,26.60
2022-12-15T02:54:47.920Z,31.52
2022-12-15T03:00:33.438Z,27.25
2022-12-15T03:03:07.327Z,34.35
2022-12-15T03:05:44.129Z,25.52
2022-12-15T03:08:29.535Z,33.45
2022-12-15T03:16:17.902Z,30.45
2022-12-15T03:18:49.206Z,28.60
2022-12-15T03:21:16.730Z,34.92
2022-12-15T03:23:49.205Z,28.45
2022-12-15T03:29:06.904Z,31.23
2022-12-15T03:31:38.701Z,33.20
2022-12-15T03:34:08.887Z,31.50
2022-12-15T03:36:41.117Z,32.90
2022-12-15T03:39:14.395Z,29.17
2022-12-15T03:41:49.255Z,30.27
2022-12-15T03:44:25.956Z,32.53
2022-12-15T03:47:01.280Z,28.90
2022-12-15T03:49:34.693Z,30.23
2022-12-15T03:52:12.194Z,30.90
2022-12-15T03:54:42.546Z,25.73
2022-12-15T03:57:13.833Z,25.92
2022-12-15T03:59:42.532Z,32.38
2022-12-15T04:02:15.300Z,31.80
2022-12-15T04:04:47.928Z,31.20
2022-12-15T04:07:20.326Z,25.88
2022-12-15T04:09:49.266Z,29.75
2022-12-15T04:12:22.550Z,28.98
2022-12-15T04:14:53.840Z,28.20
2022-12-15T04:20:20.569Z,32.53
2022-12-15T04:22:49.324Z,30.42
2022-12-15T04:25:37.519Z,27.73
2022-12-15T04:28:23.462Z,32.78
2022-12-15T04:31:17.786Z,30.13
2022-12-15T04:34:08.522Z,31.70
2022-12-15T04:36:55.308Z,33.53
2022-12-15T04:39:40.968Z,33.83
2022-12-15T04:42:26.258Z,27.48
2022-12-15T04:45:17.066Z,26.08
2022-12-15T04:48:05.657Z,29.58
2022-12-15T04:50:51.283Z,29.15
2022-12-15T04:53:38.293Z,29.00
2022-12-15T04:56:28.236Z,33.53
2022-12-15T04:59:13.454Z,23.42
2022-12-15T05:01:53.628Z,25.88
2022-12-15T05:04:39.555Z,27.73
2022-12-15T05:07:24.789Z,30.38
2022-12-15T05:10:14.884Z,27.23
2022-12-15T05:13:01.481Z,33.30
2022-12-15T05:15:47.598Z,26.10
2022-12-15T05:18:33.324Z,28.25
2022-12-15T05:21:18.799Z,26.67
2022-12-15T05:24:04.245Z,24.53
2022-12-15T05:26:52.939Z,30.38
2022-12-15T05:29:39.318Z,24.40
2022-12-15T05:32:06.917Z,29.77
2022-12-15T05:34:35.912Z,24.42
2022-12-15T05:37:04.498Z,25.23
2022-12-15T05:39:31.464Z,27.20
2022-12-15T05:41:58.287Z,29.90
2022-12-15T05:44:26.275Z,23.38
2022-12-15T05:46:53.341Z,26.77
2022-12-15T05:49:20.736Z,26.60
2022-12-15T05:51:48.590Z,29.92
2022-12-15T05:54:18.531Z,24.80
2022-12-15T05:56:46.416Z,26.03
2022-12-15T05:59:13.460Z,28.33
2022-12-15T06:01:40.391Z,26.85
2022-12-15T06:04:07.596Z,26.98
2022-12-15T06:06:34.572Z,23.88
2022-12-15T06:09:01.272Z,24.45
2022-12-15T06:11:28.033Z,28.75
2022-12-15T06:13:56.201Z,26.83
2022-12-15T06:16:24.788Z,30.52
2022-12-15T06:18:55.748Z,25.35
2022-12-15T06:23:51.293Z,24.45
2022-12-15T06:26:23.063Z,23.90
2022-12-15T06:28:50.430Z,27.63
2022-12-15T06:31:19.619Z,24.42
2022-12-15T06:33:46.499Z,26.60
2022-12-15T06:36:15.465Z,29.90
2022-12-15T06:38:45.601Z,26.90
2022-12-15T06:41:19.563Z,28.63
2022-12-15T06:43:57.797Z,31.52
2022-12-15T06:46:25.983Z,24.02
2022-12-15T06:48:53.350Z,24.98
2022-12-15T06:51:20.601Z,26.95
2022-12-15T06:53:52.557Z,23.98
2022-12-15T06:56:32.919Z,30.27
2022-12-15T06:59:01.792Z,26.20
2022-12-15T07:01:29.265Z,26.67
2022-12-15T07:03:57.095Z,28.85
2022-12-15T07:06:24.118Z,29.73
2022-12-15T07:08:56.427Z,29.10
2022-12-15T07:11:23.603Z,27.67
2022-12-15T07:13:54.411Z,26.80
2022-12-15T07:16:23.198Z,30.38
2022-12-15T07:18:50.402Z,25.63
2022-12-15T07:21:17.730Z,28.35
2022-12-15T07:24:01.464Z,27.58
2022-12-15T07:26:28.789Z,31.80
2022-12-15T07:28:56.029Z,29.88
2022-12-15T07:31:23.202Z,25.67
2022-12-15T07:33:52.060Z,29.13
2022-12-15T07:36:19.098Z,27.10
2022-12-15T07:38:50.284Z,24.10
2022-12-15T07:41:18.535Z,27.10
2022-12-15T07:43:46.540Z,26.77
2022-12-15T07:46:13.358Z,26.48
2022-12-15T07:48:40.080Z,25.23
2022-12-15T07:51:12.282Z,33.88
2022-12-15T07:53:40.051Z,30.60
2022-12-15T07:56:09.378Z,28.98
2022-12-15T07:58:37.091Z,28.80
2022-12-15T08:01:06.391Z,31.15
2022-12-15T08:03:34.842Z,27.48
2022-12-15T08:06:10.259Z,29.70
2022-12-15T08:08:39.160Z,29.08
2022-12-15T08:11:10.999Z,27.00
2022-12-15T08:16:26.320Z,30.85
2022-12-15T08:18:53.749Z,29.13
2022-12-15T08:21:20.405Z,29.58
2022-12-15T08:23:47.757Z,31.20
2022-12-15T08:26:16.743Z,33.03
2022-12-15T08:28:44.111Z,26.10
2022-12-15T08:31:16.745Z,32.35
2022-12-15T08:33:44.942Z,33.45
2022-12-15T08:36:13.905Z,28.48
2022-12-15T08:38:41.888Z,31.15
2022-12-15T08:41:20.883Z,28.92
2022-12-15T08:43:49.703Z,30.85
2022-12-15T08:46:18.244Z,30.42
2022-12-15T08:48:45.269Z,28.60
2022-12-15T08:51:12.391Z,30.92
2022-12-15T08:53:40.439Z,25.58
2022-12-15T08:56:09.950Z,28.80
2022-12-15T08:58:36.930Z,34.33
2022-12-15T09:01:23.131Z,28.92
2022-12-15T09:03:51.705Z,33.55
2022-12-15T09:06:21.572Z,31.67
2022-12-15T09:08:50.179Z,30.45
2022-12-15T09:11:17.924Z,28.33
2022-12-15T09:13:44.761Z,28.42
2022-12-15T09:16:14.602Z,30.65
2022-12-15T09:18:43.702Z,33.70
2022-12-15T09:21:11.258Z,33.25
2022-12-15T09:23:39.160Z,30.38
2022-12-15T09:26:11.749Z,28.90
2022-12-15T09:28:39.508Z,24.70
2022-12-15T09:31:11.837Z,26.10
2022-12-15T09:33:39.749Z,27.35
2022-12-15T09:36:07.143Z,31.25
2022-12-15T09:38:35.193Z,28.00
2022-12-15T09:41:14.142Z,27.30
2022-12-15T09:43:52.205Z,31.02
2022-12-15T09:46:51.493Z,26.75
2022-12-15T09:49:30.127Z,26.75
2022-12-15T09:52:12.396Z,28.35
2022-12-15T09:54:42.160Z,25.75
2022-12-15T09:57:15.879Z,27.38
2022-12-15T10:00:11.335Z,22.83
2022-12-15T10:03:10.881Z,25.13
2022-12-15T10:06:22.301Z,26.80
2022-12-15T10:08:58.091Z,26.67
2022-12-15T10:11:50.690Z,25.13
2022-12-15T10:14:26.278Z,30.88
2022-12-15T10:16:59.051Z,27.52
2022-12-15T10:19:50.045Z,30.88
2022-12-15T10:22:40.115Z,26.08
2022-12-15T10:25:18.756Z,24.13
2022-12-15T10:28:12.728Z,31.10
2022-12-15T10:31:04.170Z,27.40
2022-12-15T10:33:47.128Z,33.85
2022-12-15T10:36:17.473Z,23.55
2022-12-15T10:38:50.642Z,27.67
2022-12-15T10:41:23.052Z,26.02
2022-12-15T10:43:52.577Z,28.20
2022-12-15T10:46:27.872Z,27.80
2022-12-15T10:49:06.838Z,34.03
2022-12-15T10:51:42.616Z,28.80
2022-12-15T10:54:09.793Z,28.80
2022-12-15T10:56:57.369Z,32.35
2022-12-15T10:59:31.836Z,28.67
2022-12-15T11:02:23.869Z,25.98
2022-12-15T11:05:00.027Z,27.77
2022-12-15T11:07:41.953Z,30.77
2022-12-15T11:10:20.356Z,29.63
2022-12-15T11:13:12.164Z,29.92
2022-12-15T11:15:41.946Z,27.80
2022-12-15T11:18:17.761Z,27.95
2022-12-15T11:20:51.522Z,23.40
2022-12-15T11:23:32.605Z,28.65
2022-12-15T11:26:11.492Z,28.35
2022-12-15T11:28:54.709Z,27.30
2022-12-15T11:31:34.046Z,23.27
2022-12-15T11:34:00.845Z,28.02
2022-12-15T11:36:44.717Z,27.13
2022-12-15T11:39:49.427Z,28.45
2022-12-15T11:42:17.013Z,24.92
2022-12-15T11:45:06.259Z,23.45
2022-12-15T11:47:51.726Z,30.42
2022-12-15T11:50:56.856Z,25.02
2022-12-15T11:53:36.025Z,28.08
2022-12-15T11:56:39.817Z,36.35
2022-12-15T11:59:28.576Z,31.23
2022-12-15T12:02:34.198Z,26.80
2022-12-15T12:05:15.871Z,23.15
2022-12-15T12:07:51.463Z,29.10
2022-12-15T12:10:33.270Z,28.98
2022-12-15T12:13:26.410Z,25.92
2022-12-15T12:16:18.216Z,33.00
2022-12-15T12:18:57.014Z,23.73
2022-12-15T12:21:28.076Z,30.25
2022-12-15T12:26:52.096Z,23.70
2022-12-15T12:29:21.737Z,34.88
2022-12-15T12:32:00.416Z,30.02
2022-12-15T12:35:30.848Z,23.10
2022-12-15T12:38:03.306Z,29.83
2022-12-15T12:41:10.973Z,34.40
2022-12-15T12:43:50.234Z,25.60
2022-12-15T12:46:31.292Z,23.35
2022-12-15T12:49:18.728Z,25.30
2022-12-15T12:51:54.470Z,25.80
2022-12-15T12:54:39.985Z,23.77
2022-12-15T12:57:12.898Z,30.70
2022-12-15T13:00:03.271Z,26.80
2022-12-15T13:02:38.046Z,30.33
2022-12-15T13:05:25.180Z,25.92
2022-12-15T13:08:06.905Z,30.48
2022-12-15T13:10:36.641Z,23.45
2022-12-15T13:13:29.713Z,25.08
2022-12-15T13:16:07.646Z,23.55
2022-12-15T13:19:01.957Z,26.20
2022-12-15T13:21:44.027Z,22.77
2022-12-15T13:24:46.536Z,20.33
2022-12-15T13:27:18.283Z,22.67
2022-12-15T13:30:24.027Z,25.58
2022-12-15T13:32:55.263Z,22.33
2022-12-15T13:35:31.292Z,23.70
2022-12-15T13:38:02.925Z,25.35
2022-12-15T13:40:35.677Z,26.38
2022-12-15T13:43:05.592Z,27.45
2022-12-15T13:45:44.162Z,22.67
2022-12-15T13:48:38.823Z,23.55
2022-12-15T13:51:24.580Z,25.73
2022-12-15T13:54:23.485Z,25.98
2022-12-15T13:57:12.240Z,24.70
2022-12-15T13:59:46.608Z,27.52
2022-12-15T14:02:29.613Z,25.50
2022-12-15T14:05:18.983Z,28.17
2022-12-15T14:07:56.285Z,27.10
2022-12-15T14:10:49.137Z,26.23
2022-12-15T14:13:20.918Z,24.25
2022-12-15T14:15:53.021Z,25.05
2022-12-15T14:18:32.915Z,26.80
2022-12-15T14:21:01.661Z,26.58
2022-12-15T14:24:37.079Z,26.92
2022-12-15T14:26:47.826Z,27.60
2022-12-15T14:29:17.460Z,26.08
2022-12-15T14:31:51.348Z,27.60
2022-12-15T14:34:24.078Z,27.50
2022-12-15T14:36:51.497Z,25.67
2022-12-15T14:39:38.024Z,26.48
2022-12-15T14:42:06.415Z,25.05
2022-12-15T14:44:39.314Z,27.55
2022-12-15T14:47:16.395Z,32.65
2022-12-15T14:49:45.358Z,30.00
2022-12-15T14:52:43.761Z,31.92
2022-12-15T14:55:29.619Z,31.75
2022-12-15T14:57:56.709Z,31.02
2022-12-15T15:00:34.281Z,45.65
2022-12-15T15:03:20.293Z,40.10
2022-12-15T15:05:50.041Z,46.10
2022-12-15T15:08:29.665Z,47.28
2022-12-15T15:10:59.472Z,43.08
2022-12-15T15:13:39.852Z,48.55
2022-12-15T15:16:14.665Z,52.13
2022-12-15T15:18:42.744Z,50.03
2022-12-15T15:21:20.984Z,51.95
2022-12-15T15:24:01.895Z,53.53
2022-12-15T15:26:30.876Z,41.60
2022-12-15T15:28:58.200Z,52.72
2022-12-15T15:31:25.239Z,40.47
2022-12-15T15:33:52.804Z,53.95
2022-12-15T15:36:23.469Z,47.67
2022-12-15T15:38:52.120Z,37.67
2022-12-15T15:41:33.167Z,48.28
2022-12-15T15:46:33.547Z,35.00
2022-12-15T15:49:05.287Z,50.75
2022-12-15T15:51:33.655Z,48.38
2022-12-15T15:54:06.336Z,46.78
2022-12-15T15:56:33.090Z,49.38
2022-12-15T15:59:09.446Z,49.38
2022-12-15T16:01:36.238Z,46.92
2022-12-15T16:04:03.399Z,53.75
2022-12-15T16:06:30.235Z,47.38
2022-12-15T16:08:56.979Z,54.55
2022-12-15T16:11:25.937Z,53.38
2022-12-15T16:13:52.742Z,55.72
2022-12-15T16:16:24.153Z,56.30
2022-12-15T16:18:51.113Z,53.65
2022-12-15T16:21:19.654Z,51.67
2022-12-15T16:23:48.485Z,53.92
2022-12-15T16:26:22.626Z,53.40
2022-12-15T16:28:49.384Z,59.92
2022-12-15T16:31:28.882Z,52.70
2022-12-15T16:33:55.825Z,56.00
2022-12-15T16:36:22.682Z,51.92
2022-12-15T16:39:06.796Z,54.15
2022-12-15T16:41:33.852Z,56.47
2022-12-15T16:44:00.566Z,52.20
2022-12-15T16:46:27.305Z,54.10
2022-12-15T16:48:54.859Z,62.80
2022-12-15T16:51:42.642Z,68.25
2022-12-15T16:54:17.059Z,56.70
2022-12-15T16:56:43.852Z,58.30
2022-12-15T16:59:36.085Z,64.22
2022-12-15T17:02:23.933Z,58.83
2022-12-15T17:04:51.289Z,54.85
2022-12-15T17:07:20.597Z,56.58
2022-12-15T17:09:49.881Z,59.22
2022-12-15T17:12:17.973Z,59.25
2022-12-15T17:14:45.294Z,64.43
2022-12-15T17:17:16.541Z,57.00
2022-12-15T17:19:58.097Z,64.03
2022-12-15T17:22:30.198Z,57.40
2022-12-15T17:24:56.955Z,62.67
2022-12-15T17:27:28.306Z,54.67
2022-12-15T17:30:00.059Z,63.90
2022-12-15T17:32:26.908Z,57.00
2022-12-15T17:34:53.707Z,60.25
2022-12-15T17:37:20.501Z,60.25
2022-12-15T17:39:51.076Z,59.25
2022-12-15T17:42:20.193Z,63.92
2022-12-15T17:44:48.302Z,66.90
2022-12-15T17:47:16.657Z,58.47
2022-12-15T17:49:44.304Z,60.60
2022-12-15T17:52:30.334Z,67.80
2022-12-15T17:54:57.389Z,65.25
2022-12-15T17:57:24.648Z,60.47
2022-12-15T17:59:51.406Z,61.72
2022-12-15T18:02:18.306Z,64.32
2022-12-15T18:04:45.305Z,68.55
2022-12-15T18:07:20.719Z,59.80
2022-12-15T18:09:48.587Z,59.60
2022-12-15T18:12:25.062Z,61.65
2022-12-15T18:14:52.324Z,62.60
2022-12-15T18:17:19.989Z,64.75
2022-12-15T18:19:46.711Z,72.05
2022-12-15T18:22:24.030Z,62.42
2022-12-15T18:24:52.980Z,65.35
2022-12-15T18:27:26.551Z,68.07
2022-12-15T18:29:53.799Z,66.18
2022-12-15T18:32:26.187Z,69.50
2022-12-15T18:34:53.834Z,78.20
2022-12-15T18:37:23.063Z,75.88
2022-12-15T18:39:50.551Z,74.00
2022-12-15T18:42:20.098Z,61.53
2022-12-15T18:44:49.561Z,61.30
2022-12-15T18:47:22.375Z,61.28
2022-12-15T18:49:49.260Z,57.72
2022-12-15T18:52:21.734Z,60.42
2022-12-15T18:54:50.387Z,65.88
2022-12-15T18:57:23.154Z,60.17
2022-12-15T18:59:50.031Z,62.45
2022-12-15T19:02:16.872Z,60.60
2022-12-15T19:04:43.672Z,60.67
2022-12-15T19:07:11.403Z,61.03
2022-12-15T19:09:38.247Z,67.43
2022-12-15T19:12:20.210Z,65.18
2022-12-15T19:14:49.685Z,61.05
2022-12-15T19:17:36.910Z,63.25
2022-12-15T19:20:25.806Z,63.53
2022-12-15T19:22:53.270Z,62.90
2022-12-15T19:25:25.818Z,69.50
2022-12-15T19:27:58.962Z,67.55
2022-12-15T19:30:28.530Z,59.63
2022-12-15T19:32:55.530Z,65.38
2022-12-15T19:35:22.593Z,62.95
2022-12-15T19:37:50.033Z,63.65
2022-12-15T19:40:27.428Z,70.50
2022-12-15T19:42:55.663Z,62.10
2022-12-15T19:45:25.570Z,61.78
2022-12-15T19:47:52.771Z,60.50
2022-12-15T19:50:22.481Z,59.35
2022-12-15T19:52:55.282Z,65.63
2022-12-15T19:55:26.671Z,63.05
2022-12-15T19:57:53.448Z,56.38
2022-12-15T20:00:22.127Z,54.97
2022-12-15T20:02:51.478Z,61.38
2022-12-15T20:05:19.561Z,67.70
2022-12-15T20:07:48.196Z,62.70
2022-12-15T20:10:27.587Z,63.47
2022-12-15T20:12:56.972Z,62.47
2022-12-15T20:15:26.500Z,61.15
2022-12-15T20:17:56.990Z,71.57
2022-12-15T20:20:27.082Z,57.67
2022-12-15T20:22:56.125Z,58.97
2022-12-15T20:25:32.888Z,57.55
2022-12-15T20:28:02.993Z,65.72
2022-12-15T20:30:33.080Z,60.88
2022-12-15T20:33:01.948Z,65.68
2022-12-15T20:35:32.943Z,59.42
2022-12-15T20:40:30.196Z,61.00
2022-12-15T20:42:57.590Z,65.15
2022-12-15T20:45:27.048Z,80.15
2022-12-15T20:47:55.964Z,68.53
2022-12-15T20:50:44.080Z,72.80
2022-12-15T20:53:20.529Z,62.45
2022-12-15T20:55:49.073Z,61.85
2022-12-15T20:58:16.348Z,61.85
2022-12-15T21:00:44.151Z,57.42
2022-12-15T21:03:33.713Z,60.42
2022-12-15T21:06:00.758Z,54.20
2022-12-15T21:08:30.455Z,56.33
2022-12-15T21:11:02.514Z,63.53
2022-12-15T21:13:33.100Z,48.45
2022-12-15T21:19:10.840Z,58.03
2022-12-15T21:21:41.273Z,55.08
2022-12-15T21:24:21.159Z,50.72
2022-12-15T21:26:47.876Z,53.20
2022-12-15T21:29:20.353Z,54.72
2022-12-15T21:31:47.495Z,53.80
2022-12-15T21:34:15.325Z,53.13
2022-12-15T21:36:45.375Z,53.45
2022-12-15T21:39:25.688Z,50.38
2022-12-15T21:41:52.406Z,46.80
2022-12-15T21:44:21.829Z,51.88
2022-12-15T21:46:48.646Z,55.50
2022-12-15T21:49:20.384Z,45.53
2022-12-15T21:52:08.886Z,46.45
2022-12-15T21:54:36.580Z,45.80
2022-12-15T21:57:03.320Z,51.05
2022-12-15T21:59:31.983Z,52.70
2022-12-15T22:02:02.053Z,47.78
2022-12-15T22:04:32.083Z,52.58
2022-12-15T22:06:58.984Z,52.10
2022-12-15T22:09:25.909Z,50.97
2022-12-15T22:11:55.471Z,49.85
2022-12-15T22:14:31.598Z,47.45
2022-12-15T22:17:00.090Z,49.55
2022-12-15T22:19:27.094Z,54.80
2022-12-15T22:21:53.931Z,51.55
2022-12-15T22:24:20.770Z,59.10
2022-12-15T22:26:47.846Z,61.85
2022-12-15T22:29:24.412Z,53.83
2022-12-15T22:31:51.806Z,50.78
2022-12-15T22:34:23.931Z,58.75
2022-12-15T22:36:50.792Z,56.67
2022-12-15T22:39:19.382Z,53.47
2022-12-15T22:41:50.232Z,54.95
2022-12-15T22:46:54.321Z,58.25
2022-12-15T22:49:50.563Z,62.42
2022-12-15T22:52:20.549Z,64.07
2022-12-15T22:54:47.877Z,62.15
2022-12-15T22:57:23.834Z,64.22
2022-12-15T23:00:00.847Z,69.80
2022-12-15T23:02:31.153Z,63.25
2022-12-15T23:04:58.036Z,70.68
2022-12-15T23:07:25.631Z,75.50
2022-12-15T23:10:12.454Z,74.43
2022-12-15T23:12:39.208Z,65.65
2022-12-15T23:15:25.143Z,67.13
2022-12-15T23:17:51.805Z,62.80
2022-12-15T23:20:18.818Z,60.35
2022-12-15T23:22:45.569Z,59.75
2022-12-15T23:25:12.286Z,64.43
2022-12-15T23:27:38.951Z,62.47
2022-12-15T23:30:06.284Z,53.50
2022-12-15T23:32:33.329Z,53.15
2022-12-15T23:35:00.687Z,53.22
2022-12-15T23:37:27.587Z,54.08
2022-12-15T23:39:54.245Z,49.63
2022-12-15T23:42:20.966Z,52.03
2022-12-15T23:44:47.962Z,53.22
2022-12-15T23:47:14.820Z,59.15
2022-12-15T23:49:41.488Z,50.60
2022-12-15T23:52:08.559Z,48.38
2022-12-15T23:54:35.411Z,48.70
2022-12-15T23:57:02.678Z,56.30
2022-12-15T23:59:29.344Z,47.60
